sensor_id;sensor_type;location;lat;lon;timestamp;P1;durP1;ratioP1;P2;durP2;ratioP2
44862;SDS011;30597;49.628;10.850;2022-10-22T00:00:09;3.20;;;2.90;;
44862;SDS011;30597;49.628;10.850;2022-10-22T00:02:38;2.63;;;2.43;;
44862;SDS011;30597;49.628;10.850;2022-10-22T00:05:04;2.70;;;2.50;;
44862;SDS011;30597;49.628;10.850;2022-10-22T00:07:30;2.83;;;2.63;;
44862;SDS011;30597;49.628;10.850;2022-10-22T00:09:56;3.33;;;3.03;;
44862;SDS011;30597;49.628;10.850;2022-10-22T00:12:22;2.73;;;2.53;;
44862;SDS011;30597;49.628;10.850;2022-10-22T00:14:48;2.40;;;2.20;;
44862;SDS011;30597;49.628;10.850;2022-10-22T00:17:15;2.93;;;2.70;;
44862;SDS011;30597;49.628;10.850;2022-10-22T00:19:41;2.70;;;2.50;;
44862;SDS011;30597;49.628;10.850;2022-10-22T00:22:07;2.70;;;2.50;;
44862;SDS011;30597;49.628;10.850;2022-10-22T00:24:34;2.60;;;2.40;;
44862;SDS011;30597;49.628;10.850;2022-10-22T00:27:05;2.80;;;2.60;;
44862;SDS011;30597;49.628;10.850;2022-10-22T00:29:32;2.80;;;2.60;;
44862;SDS011;30597;49.628;10.850;2022-10-22T00:32:02;3.53;;;3.23;;
44862;SDS011;30597;49.628;10.850;2022-10-22T00:34:31;2.50;;;2.30;;
44862;SDS011;30597;49.628;10.850;2022-10-22T00:36:58;2.50;;;2.30;;
44862;SDS011;30597;49.628;10.850;2022-10-22T00:39:24;2.93;;;2.73;;
44862;SDS011;30597;49.628;10.850;2022-10-22T00:41:51;3.03;;;2.50;;
44862;SDS011;30597;49.628;10.850;2022-10-22T00:47:25;3.30;;;3.00;;
44862;SDS011;30597;49.628;10.850;2022-10-22T00:49:54;2.80;;;2.60;;
44862;SDS011;30597;49.628;10.850;2022-10-22T00:52:21;2.67;;;2.20;;
44862;SDS011;30597;49.628;10.850;2022-10-22T00:54:47;2.67;;;2.47;;
44862;SDS011;30597;49.628;10.850;2022-10-22T00:57:15;2.53;;;2.33;;
44862;SDS011;30597;49.628;10.850;2022-10-22T00:59:41;2.97;;;2.67;;
44862;SDS011;30597;49.628;10.850;2022-10-22T01:02:07;2.70;;;2.33;;
44862;SDS011;30597;49.628;10.850;2022-10-22T01:04:32;3.60;;;2.60;;
44862;SDS011;30597;49.628;10.850;2022-10-22T01:06:58;2.67;;;2.47;;
44862;SDS011;30597;49.628;10.850;2022-10-22T01:17:56;2.33;;;2.13;;
44862;SDS011;30597;49.628;10.850;2022-10-22T01:20:47;2.63;;;2.03;;
44862;SDS011;30597;49.628;10.850;2022-10-22T01:23:56;3.10;;;2.83;;
44862;SDS011;30597;49.628;10.850;2022-10-22T01:26:53;2.80;;;2.60;;
44862;SDS011;30597;49.628;10.850;2022-10-22T01:29:23;3.37;;;3.07;;
44862;SDS011;30597;49.628;10.850;2022-10-22T01:31:55;2.73;;;2.30;;
44862;SDS011;30597;49.628;10.850;2022-10-22T01:34:25;2.87;;;2.63;;
44862;SDS011;30597;49.628;10.850;2022-10-22T01:36:53;2.33;;;2.13;;
44862;SDS011;30597;49.628;10.850;2022-10-22T01:39:20;2.70;;;2.37;;
44862;SDS011;30597;49.628;10.850;2022-10-22T01:41:47;3.37;;;2.40;;
44862;SDS011;30597;49.628;10.850;2022-10-22T01:44:23;2.50;;;2.30;;
44862;SDS011;30597;49.628;10.850;2022-10-22T01:46:57;2.40;;;2.20;;
44862;SDS011;30597;49.628;10.850;2022-10-22T01:49:39;2.80;;;2.60;;
44862;SDS011;30597;49.628;10.850;2022-10-22T01:55:19;2.57;;;2.33;;
44862;SDS011;30597;49.628;10.850;2022-10-22T02:00:38;2.93;;;2.50;;
44862;SDS011;30597;49.628;10.850;2022-10-22T02:03:13;2.50;;;2.23;;
44862;SDS011;30597;49.628;10.850;2022-10-22T02:05:49;2.70;;;2.40;;
44862;SDS011;30597;49.628;10.850;2022-10-22T02:08:22;2.80;;;2.57;;
44862;SDS011;30597;49.628;10.850;2022-10-22T02:10:52;2.60;;;2.40;;
44862;SDS011;30597;49.628;10.850;2022-10-22T02:13:22;2.00;;;1.83;;
44862;SDS011;30597;49.628;10.850;2022-10-22T02:15:51;2.33;;;2.13;;
44862;SDS011;30597;49.628;10.850;2022-10-22T02:18:19;2.50;;;2.30;;
44862;SDS011;30597;49.628;10.850;2022-10-22T02:20:48;2.80;;;2.60;;
44862;SDS011;30597;49.628;10.850;2022-10-22T02:23:14;2.70;;;2.50;;
44862;SDS011;30597;49.628;10.850;2022-10-22T02:25:41;1.93;;;1.83;;
44862;SDS011;30597;49.628;10.850;2022-10-22T02:30:51;2.50;;;2.30;;
44862;SDS011;30597;49.628;10.850;2022-10-22T02:33:33;3.10;;;2.13;;
44862;SDS011;30597;49.628;10.850;2022-10-22T02:36:04;2.43;;;2.20;;
44862;SDS011;30597;49.628;10.850;2022-10-22T02:38:30;2.30;;;2.10;;
44862;SDS011;30597;49.628;10.850;2022-10-22T02:40:58;2.60;;;2.40;;
44862;SDS011;30597;49.628;10.850;2022-10-22T02:43:24;2.10;;;1.90;;
44862;SDS011;30597;49.628;10.850;2022-10-22T02:45:49;2.30;;;2.10;;
44862;SDS011;30597;49.628;10.850;2022-10-22T02:48:16;1.90;;;1.80;;
44862;SDS011;30597;49.628;10.850;2022-10-22T02:50:41;2.30;;;2.10;;
44862;SDS011;30597;49.628;10.850;2022-10-22T02:53:07;2.10;;;1.90;;
44862;SDS011;30597;49.628;10.850;2022-10-22T02:55:33;2.07;;;1.87;;
44862;SDS011;30597;49.628;10.850;2022-10-22T02:57:58;2.30;;;2.10;;
44862;SDS011;30597;49.628;10.850;2022-10-22T03:00:24;2.17;;;1.83;;
44862;SDS011;30597;49.628;10.850;2022-10-22T03:02:50;2.60;;;2.40;;
44862;SDS011;30597;49.628;10.850;2022-10-22T03:05:15;2.30;;;2.10;;
44862;SDS011;30597;49.628;10.850;2022-10-22T03:07:41;1.77;;;1.60;;
44862;SDS011;30597;49.628;10.850;2022-10-22T03:10:07;2.03;;;1.93;;
44862;SDS011;30597;49.628;10.850;2022-10-22T03:12:33;2.33;;;2.13;;
44862;SDS011;30597;49.628;10.850;2022-10-22T03:15:00;1.60;;;1.50;;
44862;SDS011;30597;49.628;10.850;2022-10-22T03:17:26;1.90;;;1.70;;
44862;SDS011;30597;49.628;10.850;2022-10-22T03:19:51;1.97;;;1.80;;
44862;SDS011;30597;49.628;10.850;2022-10-22T03:22:24;2.00;;;1.90;;
44862;SDS011;30597;49.628;10.850;2022-10-22T03:24:54;1.83;;;1.63;;
44862;SDS011;30597;49.628;10.850;2022-10-22T03:27:22;1.60;;;1.50;;
44862;SDS011;30597;49.628;10.850;2022-10-22T03:29:50;1.70;;;1.60;;
44862;SDS011;30597;49.628;10.850;2022-10-22T03:32:17;1.93;;;1.83;;
44862;SDS011;30597;49.628;10.850;2022-10-22T03:34:43;2.00;;;1.90;;
44862;SDS011;30597;49.628;10.850;2022-10-22T03:37:08;1.90;;;1.77;;
44862;SDS011;30597;49.628;10.850;2022-10-22T03:39:34;3.10;;;1.70;;
44862;SDS011;30597;49.628;10.850;2022-10-22T03:42:01;2.17;;;2.07;;
44862;SDS011;30597;49.628;10.850;2022-10-22T03:44:29;2.13;;;1.60;;
44862;SDS011;30597;49.628;10.850;2022-10-22T03:46:55;2.10;;;2.00;;
44862;SDS011;30597;49.628;10.850;2022-10-22T03:49:20;1.97;;;1.87;;
44862;SDS011;30597;49.628;10.850;2022-10-22T03:51:47;2.97;;;1.93;;
44862;SDS011;30597;49.628;10.850;2022-10-22T03:54:14;2.60;;;1.93;;
44862;SDS011;30597;49.628;10.850;2022-10-22T03:56:40;1.70;;;1.60;;
44862;SDS011;30597;49.628;10.850;2022-10-22T03:59:07;2.03;;;1.60;;
44862;SDS011;30597;49.628;10.850;2022-10-22T04:01:34;2.37;;;2.17;;
44862;SDS011;30597;49.628;10.850;2022-10-22T04:04:00;1.70;;;1.60;;
44862;SDS011;30597;49.628;10.850;2022-10-22T04:06:27;2.07;;;1.93;;
44862;SDS011;30597;49.628;10.850;2022-10-22T04:08:54;2.10;;;1.90;;
44862;SDS011;30597;49.628;10.850;2022-10-22T04:11:20;2.00;;;1.90;;
44862;SDS011;30597;49.628;10.850;2022-10-22T04:13:46;2.03;;;1.93;;
44862;SDS011;30597;49.628;10.850;2022-10-22T04:18:38;2.30;;;2.10;;
44862;SDS011;30597;49.628;10.850;2022-10-22T04:21:04;1.87;;;1.77;;
44862;SDS011;30597;49.628;10.850;2022-10-22T04:23:31;1.70;;;1.50;;
44862;SDS011;30597;49.628;10.850;2022-10-22T04:25:57;1.93;;;1.70;;
44862;SDS011;30597;49.628;10.850;2022-10-22T04:28:27;2.27;;;1.90;;
44862;SDS011;30597;49.628;10.850;2022-10-22T04:30:56;1.67;;;1.57;;
44862;SDS011;30597;49.628;10.850;2022-10-22T04:33:21;2.20;;;1.90;;
44862;SDS011;30597;49.628;10.850;2022-10-22T04:35:47;2.07;;;1.90;;
44862;SDS011;30597;49.628;10.850;2022-10-22T04:38:13;1.83;;;1.73;;
44862;SDS011;30597;49.628;10.850;2022-10-22T04:40:43;2.20;;;1.87;;
44862;SDS011;30597;49.628;10.850;2022-10-22T04:43:10;2.00;;;1.70;;
44862;SDS011;30597;49.628;10.850;2022-10-22T04:45:37;2.33;;;1.77;;
44862;SDS011;30597;49.628;10.850;2022-10-22T04:48:03;1.77;;;1.67;;
44862;SDS011;30597;49.628;10.850;2022-10-22T04:50:30;1.87;;;1.73;;
44862;SDS011;30597;49.628;10.850;2022-10-22T04:52:57;2.03;;;1.70;;
44862;SDS011;30597;49.628;10.850;2022-10-22T04:55:24;1.77;;;1.67;;
44862;SDS011;30597;49.628;10.850;2022-10-22T04:57:50;2.23;;;1.63;;
44862;SDS011;30597;49.628;10.850;2022-10-22T05:00:18;2.23;;;1.83;;
44862;SDS011;30597;49.628;10.850;2022-10-22T05:02:47;1.90;;;1.80;;
44862;SDS011;30597;49.628;10.850;2022-10-22T05:05:13;1.87;;;1.77;;
44862;SDS011;30597;49.628;10.850;2022-10-22T05:07:38;2.00;;;1.80;;
44862;SDS011;30597;49.628;10.850;2022-10-22T05:10:04;1.60;;;1.50;;
44862;SDS011;30597;49.628;10.850;2022-10-22T05:12:32;1.57;;;1.47;;
44862;SDS011;30597;49.628;10.850;2022-10-22T05:14:58;1.60;;;1.50;;
44862;SDS011;30597;49.628;10.850;2022-10-22T05:17:24;1.57;;;1.47;;
44862;SDS011;30597;49.628;10.850;2022-10-22T05:19:51;1.40;;;1.30;;
44862;SDS011;30597;49.628;10.850;2022-10-22T05:22:16;2.10;;;1.87;;
44862;SDS011;30597;49.628;10.850;2022-10-22T05:24:42;2.23;;;1.60;;
44862;SDS011;30597;49.628;10.850;2022-10-22T05:27:08;1.90;;;1.80;;
44862;SDS011;30597;49.628;10.850;2022-10-22T05:29:34;1.70;;;1.60;;
44862;SDS011;30597;49.628;10.850;2022-10-22T05:32:00;1.87;;;1.73;;
44862;SDS011;30597;49.628;10.850;2022-10-22T05:34:26;1.50;;;1.40;;
44862;SDS011;30597;49.628;10.850;2022-10-22T05:36:51;2.33;;;1.80;;
44862;SDS011;30597;49.628;10.850;2022-10-22T05:39:17;2.03;;;1.90;;
44862;SDS011;30597;49.628;10.850;2022-10-22T05:41:43;1.97;;;1.70;;
44862;SDS011;30597;49.628;10.850;2022-10-22T05:44:09;1.50;;;1.40;;
44862;SDS011;30597;49.628;10.850;2022-10-22T05:46:36;2.07;;;1.53;;
44862;SDS011;30597;49.628;10.850;2022-10-22T05:49:04;1.33;;;1.23;;
44862;SDS011;30597;49.628;10.850;2022-10-22T05:51:31;1.53;;;1.43;;
44862;SDS011;30597;49.628;10.850;2022-10-22T05:54:00;1.63;;;1.53;;
44862;SDS011;30597;49.628;10.850;2022-10-22T05:56:28;1.60;;;1.50;;
44862;SDS011;30597;49.628;10.850;2022-10-22T05:58:56;2.33;;;1.50;;
44862;SDS011;30597;49.628;10.850;2022-10-22T06:01:23;1.50;;;1.40;;
44862;SDS011;30597;49.628;10.850;2022-10-22T06:03:52;1.73;;;1.63;;
44862;SDS011;30597;49.628;10.850;2022-10-22T06:06:19;2.17;;;1.97;;
44862;SDS011;30597;49.628;10.850;2022-10-22T06:08:46;1.77;;;1.57;;
44862;SDS011;30597;49.628;10.850;2022-10-22T06:11:15;1.53;;;1.43;;
44862;SDS011;30597;49.628;10.850;2022-10-22T06:13:42;1.63;;;1.30;;
44862;SDS011;30597;49.628;10.850;2022-10-22T06:16:12;1.80;;;1.60;;
44862;SDS011;30597;49.628;10.850;2022-10-22T06:18:38;1.90;;;1.70;;
44862;SDS011;30597;49.628;10.850;2022-10-22T06:21:05;1.50;;;1.40;;
44862;SDS011;30597;49.628;10.850;2022-10-22T06:23:33;1.50;;;1.30;;
44862;SDS011;30597;49.628;10.850;2022-10-22T06:26:00;1.97;;;1.87;;
44862;SDS011;30597;49.628;10.850;2022-10-22T06:28:26;1.67;;;1.57;;
44862;SDS011;30597;49.628;10.850;2022-10-22T06:30:52;1.73;;;1.43;;
44862;SDS011;30597;49.628;10.850;2022-10-22T06:33:19;2.00;;;1.70;;
44862;SDS011;30597;49.628;10.850;2022-10-22T06:35:44;2.60;;;2.40;;
44862;SDS011;30597;49.628;10.850;2022-10-22T06:38:12;2.93;;;1.60;;
44862;SDS011;30597;49.628;10.850;2022-10-22T06:40:38;2.40;;;2.20;;
44862;SDS011;30597;49.628;10.850;2022-10-22T06:43:07;2.07;;;1.60;;
44862;SDS011;30597;49.628;10.850;2022-10-22T06:45:34;2.13;;;1.90;;
44862;SDS011;30597;49.628;10.850;2022-10-22T06:48:01;2.17;;;1.97;;
44862;SDS011;30597;49.628;10.850;2022-10-22T06:50:28;2.43;;;2.20;;
44862;SDS011;30597;49.628;10.850;2022-10-22T06:52:53;2.60;;;2.20;;
44862;SDS011;30597;49.628;10.850;2022-10-22T06:55:19;2.07;;;1.87;;
44862;SDS011;30597;49.628;10.850;2022-10-22T06:57:45;2.10;;;2.00;;
44862;SDS011;30597;49.628;10.850;2022-10-22T07:00:13;2.50;;;2.30;;
44862;SDS011;30597;49.628;10.850;2022-10-22T07:02:39;2.80;;;2.60;;
44862;SDS011;30597;49.628;10.850;2022-10-22T07:05:05;2.20;;;2.00;;
44862;SDS011;30597;49.628;10.850;2022-10-22T07:07:33;2.00;;;1.80;;
44862;SDS011;30597;49.628;10.850;2022-10-22T07:09:58;2.57;;;2.33;;
44862;SDS011;30597;49.628;10.850;2022-10-22T07:12:24;2.80;;;1.97;;
44862;SDS011;30597;49.628;10.850;2022-10-22T07:14:50;2.50;;;2.30;;
44862;SDS011;30597;49.628;10.850;2022-10-22T07:17:17;2.70;;;2.10;;
44862;SDS011;30597;49.628;10.850;2022-10-22T07:19:42;2.73;;;2.37;;
44862;SDS011;30597;49.628;10.850;2022-10-22T07:22:08;2.40;;;2.00;;
44862;SDS011;30597;49.628;10.850;2022-10-22T07:24:35;3.50;;;1.97;;
44862;SDS011;30597;49.628;10.850;2022-10-22T07:27:06;2.60;;;2.30;;
44862;SDS011;30597;49.628;10.850;2022-10-22T07:29:33;3.80;;;2.20;;
44862;SDS011;30597;49.628;10.850;2022-10-22T07:31:58;2.60;;;2.40;;
44862;SDS011;30597;49.628;10.850;2022-10-22T07:34:25;2.40;;;2.20;;
44862;SDS011;30597;49.628;10.850;2022-10-22T07:36:51;2.40;;;2.20;;
44862;SDS011;30597;49.628;10.850;2022-10-22T07:39:17;2.30;;;2.10;;
44862;SDS011;30597;49.628;10.850;2022-10-22T07:41:42;3.33;;;3.03;;
44862;SDS011;30597;49.628;10.850;2022-10-22T07:44:08;2.77;;;2.50;;
44862;SDS011;30597;49.628;10.850;2022-10-22T07:46:34;2.77;;;2.57;;
44862;SDS011;30597;49.628;10.850;2022-10-22T07:49:00;2.93;;;2.73;;
44862;SDS011;30597;49.628;10.850;2022-10-22T07:51:27;3.63;;;3.07;;
44862;SDS011;30597;49.628;10.850;2022-10-22T07:53:54;3.00;;;2.70;;
44862;SDS011;30597;49.628;10.850;2022-10-22T07:56:19;2.80;;;2.60;;
44862;SDS011;30597;49.628;10.850;2022-10-22T07:58:46;3.03;;;2.20;;
44862;SDS011;30597;49.628;10.850;2022-10-22T08:01:12;3.20;;;2.90;;
44862;SDS011;30597;49.628;10.850;2022-10-22T08:03:45;3.07;;;2.57;;
44862;SDS011;30597;49.628;10.850;2022-10-22T08:06:11;3.87;;;2.93;;
44862;SDS011;30597;49.628;10.850;2022-10-22T08:08:38;3.57;;;3.00;;
44862;SDS011;30597;49.628;10.850;2022-10-22T08:11:05;3.17;;;2.97;;
44862;SDS011;30597;49.628;10.850;2022-10-22T08:13:30;3.40;;;3.10;;
44862;SDS011;30597;49.628;10.850;2022-10-22T08:15:58;3.23;;;2.93;;
44862;SDS011;30597;49.628;10.850;2022-10-22T08:18:24;3.60;;;3.30;;
44862;SDS011;30597;49.628;10.850;2022-10-22T08:20:51;3.70;;;3.03;;
44862;SDS011;30597;49.628;10.850;2022-10-22T08:23:17;3.70;;;3.40;;
44862;SDS011;30597;49.628;10.850;2022-10-22T08:25:44;2.97;;;2.77;;
44862;SDS011;30597;49.628;10.850;2022-10-22T08:28:11;3.30;;;3.00;;
44862;SDS011;30597;49.628;10.850;2022-10-22T08:30:36;3.27;;;2.80;;
44862;SDS011;30597;49.628;10.850;2022-10-22T08:33:03;3.77;;;3.20;;
44862;SDS011;30597;49.628;10.850;2022-10-22T08:35:29;3.83;;;3.43;;
44862;SDS011;30597;49.628;10.850;2022-10-22T08:37:56;4.13;;;3.40;;
44862;SDS011;30597;49.628;10.850;2022-10-22T08:40:27;4.23;;;3.30;;
44862;SDS011;30597;49.628;10.850;2022-10-22T08:45:56;3.07;;;2.87;;
44862;SDS011;30597;49.628;10.850;2022-10-22T08:48:51;5.93;;;3.23;;
44862;SDS011;30597;49.628;10.850;2022-10-22T08:51:40;5.30;;;3.10;;
44862;SDS011;30597;49.628;10.850;2022-10-22T08:54:24;4.33;;;3.03;;
44862;SDS011;30597;49.628;10.850;2022-10-22T08:59:49;3.40;;;3.10;;
44862;SDS011;30597;49.628;10.850;2022-10-22T09:02:36;3.87;;;3.07;;
44862;SDS011;30597;49.628;10.850;2022-10-22T09:08:03;3.20;;;2.90;;
44862;SDS011;30597;49.628;10.850;2022-10-22T09:10:34;5.20;;;3.03;;
44862;SDS011;30597;49.628;10.850;2022-10-22T09:13:02;3.67;;;2.40;;
44862;SDS011;30597;49.628;10.850;2022-10-22T09:15:28;4.90;;;3.10;;
44862;SDS011;30597;49.628;10.850;2022-10-22T09:20:41;4.00;;;2.57;;
44862;SDS011;30597;49.628;10.850;2022-10-22T09:23:25;6.10;;;2.63;;
44862;SDS011;30597;49.628;10.850;2022-10-22T09:26:07;3.03;;;2.73;;
44862;SDS011;30597;49.628;10.850;2022-10-22T09:28:40;3.60;;;2.60;;
44862;SDS011;30597;49.628;10.850;2022-10-22T09:31:13;3.70;;;2.47;;
44862;SDS011;30597;49.628;10.850;2022-10-22T09:33:39;3.33;;;2.77;;
44862;SDS011;30597;49.628;10.850;2022-10-22T09:36:06;3.87;;;2.93;;
44862;SDS011;30597;49.628;10.850;2022-10-22T09:38:46;3.80;;;2.40;;
44862;SDS011;30597;49.628;10.850;2022-10-22T09:41:13;6.60;;;3.13;;
44862;SDS011;30597;49.628;10.850;2022-10-22T09:43:41;2.73;;;2.53;;
44862;SDS011;30597;49.628;10.850;2022-10-22T09:46:14;3.10;;;2.60;;
44862;SDS011;30597;49.628;10.850;2022-10-22T09:48:42;4.87;;;2.80;;
44862;SDS011;30597;49.628;10.850;2022-10-22T09:54:22;2.90;;;2.60;;
44862;SDS011;30597;49.628;10.850;2022-10-22T09:56:54;2.60;;;2.40;;
44862;SDS011;30597;49.628;10.850;2022-10-22T09:59:29;3.83;;;2.37;;
44862;SDS011;30597;49.628;10.850;2022-10-22T10:02:02;2.97;;;2.63;;
44862;SDS011;30597;49.628;10.850;2022-10-22T10:05:01;3.70;;;2.67;;
44862;SDS011;30597;49.628;10.850;2022-10-22T10:07:30;2.70;;;2.50;;
44862;SDS011;30597;49.628;10.850;2022-10-22T10:09:57;3.40;;;2.67;;
44862;SDS011;30597;49.628;10.850;2022-10-22T10:12:43;2.80;;;2.50;;
44862;SDS011;30597;49.628;10.850;2022-10-22T10:19:06;2.47;;;2.27;;
44862;SDS011;30597;49.628;10.850;2022-10-22T10:21:41;4.60;;;2.40;;
44862;SDS011;30597;49.628;10.850;2022-10-22T10:27:06;2.90;;;2.57;;
44862;SDS011;30597;49.628;10.850;2022-10-22T10:30:17;2.87;;;2.13;;
44862;SDS011;30597;49.628;10.850;2022-10-22T10:38:57;3.77;;;2.70;;
44862;SDS011;30597;49.628;10.850;2022-10-22T10:41:34;5.93;;;2.37;;
44862;SDS011;30597;49.628;10.850;2022-10-22T10:49:44;2.53;;;2.17;;
44862;SDS011;30597;49.628;10.850;2022-10-22T10:52:17;2.37;;;1.90;;
44862;SDS011;30597;49.628;10.850;2022-10-22T10:55:10;2.23;;;2.03;;
44862;SDS011;30597;49.628;10.850;2022-10-22T10:58:13;3.17;;;1.70;;
44862;SDS011;30597;49.628;10.850;2022-10-22T11:01:13;2.90;;;1.93;;
44862;SDS011;30597;49.628;10.850;2022-10-22T11:03:46;1.97;;;1.60;;
44862;SDS011;30597;49.628;10.850;2022-10-22T11:06:23;2.87;;;2.60;;
44862;SDS011;30597;49.628;10.850;2022-10-22T11:08:53;2.50;;;2.27;;
44862;SDS011;30597;49.628;10.850;2022-10-22T11:11:35;6.13;;;2.47;;
44862;SDS011;30597;49.628;10.850;2022-10-22T11:17:12;3.60;;;2.27;;
44862;SDS011;30597;49.628;10.850;2022-10-22T11:19:51;2.60;;;1.73;;
44862;SDS011;30597;49.628;10.850;2022-10-22T11:22:34;2.00;;;1.90;;
44862;SDS011;30597;49.628;10.850;2022-10-22T11:25:13;2.10;;;1.90;;
44862;SDS011;30597;49.628;10.850;2022-10-22T11:27:51;2.20;;;2.10;;
44862;SDS011;30597;49.628;10.850;2022-10-22T11:30:24;3.73;;;2.20;;
44862;SDS011;30597;49.628;10.850;2022-10-22T11:32:56;1.80;;;1.57;;
44862;SDS011;30597;49.628;10.850;2022-10-22T11:35:26;2.80;;;2.13;;
44862;SDS011;30597;49.628;10.850;2022-10-22T11:37:57;3.20;;;2.57;;
44862;SDS011;30597;49.628;10.850;2022-10-22T11:43:34;2.77;;;2.20;;
44862;SDS011;30597;49.628;10.850;2022-10-22T11:48:41;2.20;;;1.70;;
44862;SDS011;30597;49.628;10.850;2022-10-22T11:54:01;2.20;;;1.80;;
44862;SDS011;30597;49.628;10.850;2022-10-22T11:56:51;1.93;;;1.73;;
44862;SDS011;30597;49.628;10.850;2022-10-22T11:59:37;2.83;;;1.63;;
44862;SDS011;30597;49.628;10.850;2022-10-22T12:04:55;2.10;;;1.90;;
44862;SDS011;30597;49.628;10.850;2022-10-22T12:10:36;1.63;;;1.37;;
44862;SDS011;30597;49.628;10.850;2022-10-22T12:13:25;1.70;;;1.60;;
44862;SDS011;30597;49.628;10.850;2022-10-22T12:15:57;1.80;;;1.63;;
44862;SDS011;30597;49.628;10.850;2022-10-22T12:18:32;2.73;;;1.97;;
44862;SDS011;30597;49.628;10.850;2022-10-22T12:21:09;2.63;;;2.10;;
44862;SDS011;30597;49.628;10.850;2022-10-22T12:23:38;1.90;;;1.80;;
44862;SDS011;30597;49.628;10.850;2022-10-22T12:26:05;1.90;;;1.80;;
44862;SDS011;30597;49.628;10.850;2022-10-22T12:28:38;1.87;;;1.67;;
44862;SDS011;30597;49.628;10.850;2022-10-22T12:31:05;2.07;;;1.87;;
44862;SDS011;30597;49.628;10.850;2022-10-22T12:33:40;1.57;;;1.47;;
44862;SDS011;30597;49.628;10.850;2022-10-22T12:36:06;2.23;;;1.70;;
44862;SDS011;30597;49.628;10.850;2022-10-22T12:38:38;1.50;;;1.40;;
44862;SDS011;30597;49.628;10.850;2022-10-22T12:41:11;1.87;;;1.70;;
44862;SDS011;30597;49.628;10.850;2022-10-22T12:43:37;1.77;;;1.67;;
44862;SDS011;30597;49.628;10.850;2022-10-22T12:46:04;1.70;;;1.60;;
44862;SDS011;30597;49.628;10.850;2022-10-22T12:48:37;1.73;;;1.57;;
44862;SDS011;30597;49.628;10.850;2022-10-22T12:51:06;1.87;;;1.57;;
44862;SDS011;30597;49.628;10.850;2022-10-22T12:53:41;1.60;;;1.40;;
44862;SDS011;30597;49.628;10.850;2022-10-22T12:56:28;1.73;;;1.40;;
44862;SDS011;30597;49.628;10.850;2022-10-22T12:58:58;1.40;;;1.30;;
44862;SDS011;30597;49.628;10.850;2022-10-22T13:01:41;1.70;;;1.60;;
44862;SDS011;30597;49.628;10.850;2022-10-22T13:06:42;1.80;;;1.70;;
44862;SDS011;30597;49.628;10.850;2022-10-22T13:12:03;1.90;;;1.70;;
44862;SDS011;30597;49.628;10.850;2022-10-22T13:14:33;1.70;;;1.60;;
44862;SDS011;30597;49.628;10.850;2022-10-22T13:17:15;1.50;;;1.40;;
44862;SDS011;30597;49.628;10.850;2022-10-22T13:24:54;1.50;;;1.30;;
44862;SDS011;30597;49.628;10.850;2022-10-22T13:27:23;1.30;;;1.20;;
44862;SDS011;30597;49.628;10.850;2022-10-22T13:29:52;2.20;;;1.97;;
44862;SDS011;30597;49.628;10.850;2022-10-22T13:34:55;2.30;;;1.70;;
44862;SDS011;30597;49.628;10.850;2022-10-22T13:37:24;1.83;;;1.70;;
44862;SDS011;30597;49.628;10.850;2022-10-22T13:39:52;2.70;;;1.57;;
44862;SDS011;30597;49.628;10.850;2022-10-22T13:42:18;1.40;;;1.30;;
44862;SDS011;30597;49.628;10.850;2022-10-22T13:44:43;1.33;;;1.20;;
44862;SDS011;30597;49.628;10.850;2022-10-22T13:47:30;1.27;;;1.17;;
44862;SDS011;30597;49.628;10.850;2022-10-22T13:49:58;1.37;;;1.27;;
44862;SDS011;30597;49.628;10.850;2022-10-22T13:52:27;1.57;;;1.23;;
44862;SDS011;30597;49.628;10.850;2022-10-22T13:55:11;1.37;;;1.27;;
44862;SDS011;30597;49.628;10.850;2022-10-22T13:58:11;1.60;;;1.50;;
44862;SDS011;30597;49.628;10.850;2022-10-22T14:00:43;2.77;;;1.43;;
44862;SDS011;30597;49.628;10.850;2022-10-22T14:03:16;1.50;;;1.37;;
44862;SDS011;30597;49.628;10.850;2022-10-22T14:05:45;1.40;;;1.30;;
44862;SDS011;30597;49.628;10.850;2022-10-22T14:08:14;1.77;;;1.40;;
44862;SDS011;30597;49.628;10.850;2022-10-22T14:10:45;1.40;;;1.30;;
44862;SDS011;30597;49.628;10.850;2022-10-22T14:13:11;1.90;;;1.40;;
44862;SDS011;30597;49.628;10.850;2022-10-22T14:15:38;1.60;;;1.50;;
44862;SDS011;30597;49.628;10.850;2022-10-22T14:18:05;1.60;;;1.30;;
44862;SDS011;30597;49.628;10.850;2022-10-22T14:20:36;2.13;;;1.30;;
44862;SDS011;30597;49.628;10.850;2022-10-22T14:23:10;1.60;;;1.40;;
44862;SDS011;30597;49.628;10.850;2022-10-22T14:25:40;1.90;;;1.13;;
44862;SDS011;30597;49.628;10.850;2022-10-22T14:28:08;1.50;;;1.40;;
44862;SDS011;30597;49.628;10.850;2022-10-22T14:30:36;1.80;;;1.30;;
44862;SDS011;30597;49.628;10.850;2022-10-22T14:33:08;1.17;;;1.07;;
44862;SDS011;30597;49.628;10.850;2022-10-22T14:35:47;2.07;;;1.67;;
44862;SDS011;30597;49.628;10.850;2022-10-22T14:38:14;1.83;;;1.73;;
44862;SDS011;30597;49.628;10.850;2022-10-22T14:40:40;1.23;;;1.13;;
44862;SDS011;30597;49.628;10.850;2022-10-22T14:43:11;1.50;;;1.40;;
44862;SDS011;30597;49.628;10.850;2022-10-22T14:45:49;1.53;;;1.20;;
44862;SDS011;30597;49.628;10.850;2022-10-22T14:48:16;1.50;;;1.40;;
44862;SDS011;30597;49.628;10.850;2022-10-22T14:50:44;1.43;;;1.33;;
44862;SDS011;30597;49.628;10.850;2022-10-22T14:53:13;1.33;;;1.23;;
44862;SDS011;30597;49.628;10.850;2022-10-22T14:55:42;1.33;;;1.23;;
44862;SDS011;30597;49.628;10.850;2022-10-22T14:58:12;1.57;;;1.47;;
44862;SDS011;30597;49.628;10.850;2022-10-22T15:00:41;2.07;;;1.90;;
44862;SDS011;30597;49.628;10.850;2022-10-22T15:03:07;1.23;;;1.10;;
44862;SDS011;30597;49.628;10.850;2022-10-22T15:05:33;1.30;;;1.20;;
44862;SDS011;30597;49.628;10.850;2022-10-22T15:08:03;1.20;;;1.10;;
44862;SDS011;30597;49.628;10.850;2022-10-22T15:10:30;1.77;;;1.50;;
44862;SDS011;30597;49.628;10.850;2022-10-22T15:12:56;1.60;;;1.33;;
44862;SDS011;30597;49.628;10.850;2022-10-22T15:15:21;1.10;;;1.00;;
44862;SDS011;30597;49.628;10.850;2022-10-22T15:17:48;1.20;;;1.00;;
44862;SDS011;30597;49.628;10.850;2022-10-22T15:20:16;1.20;;;1.10;;
44862;SDS011;30597;49.628;10.850;2022-10-22T15:22:44;1.33;;;1.20;;
44862;SDS011;30597;49.628;10.850;2022-10-22T15:25:10;1.57;;;1.47;;
44862;SDS011;30597;49.628;10.850;2022-10-22T15:27:37;1.30;;;1.10;;
44862;SDS011;30597;49.628;10.850;2022-10-22T15:30:03;1.57;;;1.47;;
44862;SDS011;30597;49.628;10.850;2022-10-22T15:32:31;2.27;;;1.70;;
44862;SDS011;30597;49.628;10.850;2022-10-22T15:34:58;1.27;;;1.17;;
44862;SDS011;30597;49.628;10.850;2022-10-22T15:37:25;1.37;;;1.27;;
44862;SDS011;30597;49.628;10.850;2022-10-22T15:39:51;1.80;;;1.60;;
44862;SDS011;30597;49.628;10.850;2022-10-22T15:42:17;1.47;;;1.37;;
44862;SDS011;30597;49.628;10.850;2022-10-22T15:44:43;1.50;;;1.40;;
44862;SDS011;30597;49.628;10.850;2022-10-22T15:47:09;1.80;;;1.70;;
44862;SDS011;30597;49.628;10.850;2022-10-22T15:49:38;2.00;;;1.80;;
44862;SDS011;30597;49.628;10.850;2022-10-22T15:52:04;1.40;;;1.13;;
44862;SDS011;30597;49.628;10.850;2022-10-22T15:54:31;1.40;;;1.17;;
44862;SDS011;30597;49.628;10.850;2022-10-22T15:56:58;1.30;;;1.20;;
44862;SDS011;30597;49.628;10.850;2022-10-22T15:59:26;1.70;;;1.60;;
44862;SDS011;30597;49.628;10.850;2022-10-22T16:01:51;1.43;;;1.33;;
44862;SDS011;30597;49.628;10.850;2022-10-22T16:04:17;1.50;;;1.40;;
44862;SDS011;30597;49.628;10.850;2022-10-22T16:06:46;2.23;;;2.00;;
44862;SDS011;30597;49.628;10.850;2022-10-22T16:09:14;1.60;;;1.50;;
44862;SDS011;30597;49.628;10.850;2022-10-22T16:11:42;2.10;;;1.50;;
44862;SDS011;30597;49.628;10.850;2022-10-22T16:14:12;2.20;;;1.67;;